Time;durP1;ratioP1;P1;durP2;ratioP2;P2;SDS_P1;SDS_P2;PMS_P1;PMS_P2;Temp;Humidity;BMP_temperature;BMP_pressure;BME280_temperature;BME280_humidity;BME280_pressure;Samples;Min_cycle;Max_cycle;Signal;HPM_P1;HPM_P2
2023/12/04 14:46:05;;;;;;;;;;;;;;;-1.01;75.67;100871.52;107364;1288;544086;31
2023/12/04 14:48:56;;;;;;;;;;;;;;;-1.01;75.94;100867.88;109413;1264;24090;31
2023/12/04 15:18:37;;;;;;;;;;;;;;;-1.18;75.30;100880.03;109254;1274;22668;31
2023/12/04 15:21:09;;;;;;;;;;;;;;;-1.18;75.28;100884.23;109365;1267;22518;-89
2023/12/04 15:24:11;;;;;;;;;;;;;;;-1.17;74.98;100883.88;108635;1265;22588;31
2023/12/04 15:30:09;;;;;;;;;;;;;;;-1.29;74.78;100885.76;108857;1270;22548;-88
2023/12/04 15:36:10;;;;;;;;;;;;;;;-1.28;75.44;100875.09;92798;1264;24215;31
2023/12/04 15:38:37;;;;;;;;;;;;;;;-1.28;75.09;100876.00;108543;1295;22582;-92
2023/12/04 15:41:04;;;;;;;;;;;;;;;-1.26;75.17;100876.92;108641;1295;22982;-92
2023/12/04 15:43:32;;;;;;;;;;;;;;;-1.26;74.80;100876.42;108743;1295;22714;-91
2023/12/04 15:45:59;;;;;;;;;;;;;;;-1.26;74.66;100876.61;109127;1275;22544;-92
2023/12/04 15:48:32;;;;;;;;;;;;;;;-1.26;74.74;100877.30;108866;1295;23451;-92
2023/12/04 15:51:00;;;;;;;;;;;;;;;-1.27;74.52;100876.39;109029;1293;22650;-90
2023/12/04 15:53:27;;;;;;;;;;;;;;;-1.32;74.20;100872.87;108740;1295;23173;-93
2023/12/04 15:55:55;;;;;;;;;;;;;;;-1.40;74.21;100876.45;109420;1266;22607;-92
2023/12/04 15:58:25;;;;;;;;;;;;;;;-1.46;74.37;100873.73;109421;1289;22518;-93
2023/12/04 16:16:42;;;;;;;;;;;;;;;-1.29;74.98;100873.52;107895;1279;556874;31
2023/12/04 16:19:10;;;;;;;;;;;;;;;-1.25;74.96;100870.77;109204;1296;226404;-87
2023/12/04 16:24:45;;;;;;;;;;;;;;;-1.27;74.44;100870.49;105059;1286;1073889;-86
2023/12/04 16:27:13;;;;;;;;;;;;;;;-1.29;74.44;100872.96;108710;1302;22344;-87
2023/12/04 16:29:43;;;;;;;;;;;;;;;-1.33;74.42;100872.27;108718;1295;22304;-88
2023/12/04 16:32:13;;;;;;;;;;;;;;;-1.31;74.73;100868.05;108900;1296;22431;-87
2023/12/04 16:34:42;;;;;;;;;;;;;;;-1.30;74.50;100871.02;108451;1301;22515;-86
2023/12/04 16:37:12;;;;;;;;;;;;;;;-1.38;74.14;100868.58;108417;1303;22484;-86
2023/12/04 16:39:44;;;;;;;;;;;;;;;-1.47;74.26;100867.48;107787;1300;22494;-87
2023/12/04 16:42:12;;;;;;;;;;;;;;;-1.52;74.40;100868.30;107427;1311;22480;-84
2023/12/04 16:44:44;;;;;;;;;;;;;;;-1.52;74.18;100866.73;107441;1307;22441;-89
2023/12/04 16:50:37;;;;;;;;;;;;;;;-1.52;74.38;100867.59;87191;1291;22920;31
2023/12/04 17:15:47;;;;;;;;;;;;;;;-1.62;74.22;100853.85;87272;1284;22873;31
2023/12/04 17:18:16;;;;;;;;;;;;;;;-1.65;74.36;100856.27;108082;1299;22501;-87
2023/12/04 17:36:55;;;;;;;;;;;;;;;-1.94;74.48;100859.67;87266;1283;23391;31
2023/12/04 17:42:59;;;;;;;;;;;;;;;-2.07;74.71;100861.32;86780;1298;23818;31
2023/12/04 18:16:46;;;;;;;;;;;;;;;-2.37;75.27;100870.90;96721;1284;22566;-88
2023/12/04 18:19:35;;;;;;;;;;;;;;;-2.39;75.27;100869.89;108266;1279;23471;31
2023/12/04 18:25:47;;;;;;;;;;;;;;;-2.54;75.24;100869.34;108268;1292;23210;31
2023/12/04 18:28:41;;;;;;;;;;;;;;;-2.59;75.02;100868.04;107800;1272;22586;31
2023/12/04 18:31:19;;;;;;;;;;;;;;;-2.66;75.30;100867.16;108170;1270;22940;31
2023/12/04 18:34:08;;;;;;;;;;;;;;;-2.67;75.44;100865.18;108788;1268;22885;31
2023/12/04 18:36:54;;;;;;;;;;;;;;;-2.68;75.43;100863.73;109764;1292;22325;-87
2023/12/04 18:39:46;;;;;;;;;;;;;;;-2.72;75.66;100864.94;109874;1292;22238;-89
2023/12/04 18:42:15;;;;;;;;;;;;;;;-2.73;75.65;100863.17;109592;1292;22362;-89
2023/12/04 18:44:57;;;;;;;;;;;;;;;-2.78;75.41;100862.73;108978;1270;22591;31
2023/12/04 18:47:53;;;;;;;;;;;;;;;-2.85;75.59;100861.52;109091;1270;22621;31
